Time;durP1;ratioP1;P1;durP2;ratioP2;P2;SDS_P1;SDS_P2;PMS_P1;PMS_P2;Temp;Humidity;BMP_temperature;BMP_pressure;BME280_temperature;BME280_humidity;BME280_pressure;Samples;Min_cycle;Max_cycle;Signal;HPM_P1;HPM_P2
2023/04/03 00:01:32;;;;;;;3.00;2.08;;;;;;;-139.84;100.00;61778.28;5004983;28;20026;-73
2023/04/03 00:03:57;;;;;;;4.47;2.30;;;;;;;-139.84;100.00;61778.28;4982319;28;20117;-73
2023/04/03 00:06:24;;;;;;;5.00;2.15;;;;;;;-139.84;100.00;61778.28;4988445;28;20413;-74
2023/04/03 00:08:50;;;;;;;2.67;2.05;;;;;;;-139.84;100.00;61778.28;4985811;28;20462;-74
2023/04/03 00:11:17;;;;;;;3.95;2.22;;;;;;;-139.84;100.00;61778.28;4982835;28;20045;-73
2023/04/03 00:13:44;;;;;;;3.38;2.08;;;;;;;-139.84;100.00;61778.28;4984100;28;20058;-74
2023/04/03 00:16:10;;;;;;;2.75;1.90;;;;;;;-139.84;100.00;61778.28;4988973;28;20133;-73
2023/04/03 00:18:37;;;;;;;5.28;2.17;;;;;;;-139.84;100.00;61778.28;4983756;28;20042;-73
2023/04/03 00:21:03;;;;;;;4.85;2.20;;;;;;;-139.84;100.00;61778.28;4985826;28;20060;-73
2023/04/03 00:23:29;;;;;;;3.58;2.53;;;;;;;-139.84;100.00;61778.28;5001838;28;20485;-73
2023/04/03 00:25:55;;;;;;;5.93;2.45;;;;;;;-139.84;100.00;61778.28;4989697;28;20041;-73
2023/04/03 00:28:21;;;;;;;3.45;2.05;;;;;;;-139.84;100.00;61778.28;4985600;28;20336;-73
2023/04/03 00:30:49;;;;;;;3.97;2.13;;;;;;;-139.84;100.00;61778.28;4989520;28;20018;-74
2023/04/03 00:33:15;;;;;;;2.58;2.22;;;;;;;-139.84;100.00;61778.28;4985586;28;20497;-73
2023/04/03 00:35:42;;;;;;;2.33;1.80;;;;;;;-139.84;100.00;61778.28;4990851;28;20022;-73
2023/04/03 00:38:08;;;;;;;2.40;1.70;;;;;;;-139.84;100.00;61778.28;5000522;28;20027;-74
2023/04/03 00:40:41;;;;;;;2.42;2.08;;;;;;;-139.84;100.00;61778.28;4986032;28;20168;-75
2023/04/03 00:43:14;;;;;;;4.07;2.33;;;;;;;-139.84;100.00;61778.28;4987409;28;20535;-75
2023/04/03 00:45:42;;;;;;;4.60;2.38;;;;;;;-139.84;100.00;61778.28;4986264;28;20022;-74
2023/04/03 00:48:13;;;;;;;3.47;2.28;;;;;;;-139.84;100.00;61778.28;4987020;28;20029;-74
2023/04/03 00:50:42;;;;;;;2.20;1.83;;;;;;;-139.84;100.00;61778.28;4985967;28;20030;-74
2023/04/03 00:53:12;;;;;;;7.47;2.25;;;;;;;-139.84;100.00;61778.28;4985743;28;20026;-75
2023/04/03 00:55:39;;;;;;;4.78;2.00;;;;;;;-139.84;100.00;61778.28;4987900;28;20034;-74
2023/04/03 00:58:06;;;;;;;3.83;1.92;;;;;;;-139.84;100.00;61778.28;4983722;28;20030;-73
2023/04/03 01:00:32;;;;;;;4.90;2.47;;;;;;;-139.84;100.00;61778.28;4989066;28;20053;-73
2023/04/03 01:02:58;;;;;;;3.33;2.13;;;;;;;-139.84;100.00;61778.28;4971322;28;20026;-74
2023/04/03 01:05:24;;;;;;;4.38;2.33;;;;;;;-139.84;100.00;61778.28;4985426;28;20218;-74
2023/04/03 01:07:51;;;;;;;6.10;2.90;;;;;;;-139.84;100.00;61778.28;4988081;28;20030;-74
2023/04/03 01:10:17;;;;;;;;;;;;;;;-139.84;100.00;61778.28;4985409;28;20026;-74
2023/04/03 01:12:45;;;;;;;4.55;2.20;;;;;;;-139.84;100.00;61778.28;4986067;28;19922;-74
2023/04/03 01:15:14;;;;;;;7.13;2.33;;;;;;;-139.84;100.00;61778.28;4983550;28;20030;-72
2023/04/03 01:17:41;;;;;;;4.10;2.08;;;;;;;-139.84;100.00;61778.28;4987450;28;20040;-72
2023/04/03 01:20:31;;;;;;;4.85;2.58;;;;;;;-139.84;100.00;61778.28;4990943;28;20030;-74
2023/04/03 01:23:11;;;;;;;3.33;2.25;;;;;;;-139.84;100.00;61778.28;4989341;28;20019;-75
2023/04/03 01:25:42;;;;;;;2.90;2.08;;;;;;;-139.84;100.00;61778.28;5006019;28;20460;-75
2023/04/03 01:28:16;;;;;;;6.63;2.38;;;;;;;-139.84;100.00;61778.28;4988096;28;20396;-73
2023/04/03 01:31:19;;;;;;;4.03;2.50;;;;;;;-139.84;100.00;61778.28;4985126;28;20034;-75
2023/04/03 01:33:45;;;;;;;5.45;2.13;;;;;;;-139.84;100.00;61778.28;5002005;28;20378;-75
2023/04/03 01:36:17;;;;;;;2.88;2.28;;;;;;;-139.84;100.00;61778.28;4982853;28;20121;-74
2023/04/03 01:38:43;;;;;;;2.70;2.05;;;;;;;-139.84;100.00;61778.28;4988031;28;20440;-74
2023/04/03 01:41:08;;;;;;;2.83;2.25;;;;;;;-139.84;100.00;61778.28;4990059;28;20070;-74
2023/04/03 01:43:33;;;;;;;8.60;2.80;;;;;;;-139.84;100.00;61778.28;4989162;28;20093;-74
2023/04/03 01:45:59;;;;;;;5.95;2.42;;;;;;;-139.84;100.00;61778.28;4990321;28;20492;-74
2023/04/03 01:48:24;;;;;;;4.53;2.42;;;;;;;-139.84;100.00;61778.28;4988669;28;20027;-74
2023/04/03 01:50:50;;;;;;;6.43;2.28;;;;;;;-139.84;100.00;61778.28;4984228;28;20109;-75
2023/04/03 01:53:15;;;;;;;6.70;3.47;;;;;;;-139.84;100.00;61778.28;4990403;28;20494;-74
2023/04/03 01:55:41;;;;;;;5.50;2.70;;;;;;;-139.84;100.00;61778.28;4987720;28;20103;-74
2023/04/03 01:58:06;;;;;;;5.10;2.50;;;;;;;-139.84;100.00;61778.28;4988431;28;20354;-74
2023/04/03 02:00:31;;;;;;;8.23;2.58;;;;;;;-139.84;100.00;61778.28;4992940;28;20021;-73
2023/04/03 02:02:57;;;;;;;3.88;2.50;;;;;;;-139.84;100.00;61778.28;4991069;28;20470;-74
2023/04/03 02:05:23;;;;;;;5.63;2.50;;;;;;;-139.84;100.00;61778.28;4992649;28;20545;-74
2023/04/03 02:07:48;;;;;;;5.45;2.60;;;;;;;-139.84;100.00;61778.28;4989819;28;20037;-73
2023/04/03 02:10:14;;;;;;;4.43;2.50;;;;;;;-139.84;100.00;61778.28;4987638;28;20105;-73
2023/04/03 02:12:39;;;;;;;5.30;2.38;;;;;;;-139.84;100.00;61778.28;4985513;28;20456;-75
2023/04/03 02:15:05;;;;;;;5.00;2.72;;;;;;;-139.84;100.00;61778.28;4993038;28;20034;-74
2023/04/03 02:17:31;;;;;;;4.78;2.70;;;;;;;-139.84;100.00;61778.28;4989631;28;20022;-74
2023/04/03 02:19:58;;;;;;;3.45;2.42;;;;;;;-139.84;100.00;61778.28;4993020;28;20088;-74
2023/04/03 02:22:23;;;;;;;5.82;2.92;;;;;;;-139.84;100.00;61778.28;4987040;28;20106;-74
2023/04/03 02:24:49;;;;;;;7.18;2.50;;;;;;;-139.84;100.00;61778.28;4990806;28;20393;-74
2023/04/03 02:27:14;;;;;;;6.03;2.75;;;;;;;-139.84;100.00;61778.28;4990305;28;20461;-74
2023/04/03 02:29:40;;;;;;;5.25;2.63;;;;;;;-139.84;100.00;61778.28;4989842;28;20133;-73
2023/04/03 02:32:05;;;;;;;4.13;2.78;;;;;;;-139.84;100.00;61778.28;4990346;28;20022;-72
2023/04/03 02:34:31;;;;;;;4.85;2.38;;;;;;;-139.84;100.00;61778.28;4989452;28;20497;-72
2023/04/03 02:36:56;;;;;;;9.13;3.03;;;;;;;-139.84;100.00;61778.28;4987211;28;20076;-74
2023/04/03 02:39:21;;;;;;;34.35;3.33;;;;;;;-139.84;100.00;61778.28;4991844;28;20374;-76
2023/04/03 02:41:47;;;;;;;8.88;2.70;;;;;;;-139.84;100.00;61778.28;4988010;28;20470;-75
2023/04/03 02:44:13;;;;;;;3.72;2.28;;;;;;;-139.84;100.00;61778.28;4992777;28;20045;-75
2023/04/03 02:46:39;;;;;;;7.03;2.67;;;;;;;-139.84;100.00;61778.28;4989872;28;20113;-74
2023/04/03 02:49:05;;;;;;;5.07;2.95;;;;;;;-139.84;100.00;61778.28;4990522;28;20038;-74
2023/04/03 02:51:31;;;;;;;5.85;2.58;;;;;;;-139.84;100.00;61778.28;4989674;28;20355;-74
2023/04/03 02:53:56;;;;;;;5.72;2.92;;;;;;;-139.84;100.00;61778.28;4991582;28;20504;-72
2023/04/03 02:56:22;;;;;;;4.10;2.35;;;;;;;-139.84;100.00;61778.28;4985642;28;20080;-74
2023/04/03 02:58:48;;;;;;;7.15;3.35;;;;;;;-139.84;100.00;61778.28;4990086;28;20034;-74
2023/04/03 03:01:14;;;;;;;7.30;3.55;;;;;;;-139.84;100.00;61778.28;4988452;28;20025;-73
2023/04/03 03:03:39;;;;;;;5.38;2.63;;;;;;;-139.84;100.00;61778.28;4984443;28;20398;-74
2023/04/03 03:06:07;;;;;;;4.90;2.65;;;;;;;-139.84;100.00;61778.28;4991510;28;20022;-74
2023/04/03 03:08:34;;;;;;;3.83;3.05;;;;;;;-139.84;100.00;61778.28;4988665;28;20037;-74
2023/04/03 03:10:59;;;;;;;9.38;3.13;;;;;;;-139.84;100.00;61778.28;4989929;28;20528;-73
2023/04/03 03:13:25;;;;;;;6.60;2.70;;;;;;;-139.84;100.00;61778.28;4991534;28;20042;-74
2023/04/03 03:15:50;;;;;;;4.68;2.88;;;;;;;-139.84;100.00;61778.28;4986006;28;20475;-73
2023/04/03 03:18:16;;;;;;;4.68;2.70;;;;;;;-139.84;100.00;61778.28;4987363;28;20026;-75
2023/04/03 03:20:42;;;;;;;10.23;3.40;;;;;;;-139.84;100.00;61778.28;4986690;28;20406;-73
2023/04/03 03:23:08;;;;;;;8.93;3.17;;;;;;;-139.84;100.00;61778.28;4989938;28;20033;-73
2023/04/03 03:25:33;;;;;;;4.78;2.72;;;;;;;-139.84;100.00;61778.28;4990815;28;20037;-74
2023/04/03 03:27:58;;;;;;;5.00;2.90;;;;;;;-139.84;100.00;61778.28;4989655;28;20092;-74
2023/04/03 03:30:24;;;;;;;4.22;2.83;;;;;;;-139.84;100.00;61778.28;4986070;28;20049;-74
2023/04/03 03:32:50;;;;;;;6.68;3.03;;;;;;;-139.84;100.00;61778.28;4984650;28;20108;-73
2023/04/03 03:35:15;;;;;;;4.22;2.75;;;;;;;-139.84;100.00;61778.28;4989517;28;20030;-73
2023/04/03 03:37:41;;;;;;;3.55;2.80;;;;;;;-139.84;100.00;61778.28;4989858;28;20062;-73
2023/04/03 03:40:07;;;;;;;10.95;3.13;;;;;;;-139.84;100.00;61778.28;4989444;28;20110;-74
2023/04/03 03:42:32;;;;;;;6.18;2.65;;;;;;;-139.84;100.00;61778.28;4987853;28;20061;-73
2023/04/03 03:44:57;;;;;;;6.18;2.88;;;;;;;-139.84;100.00;61778.28;4987785;28;20118;-73
2023/04/03 03:47:23;;;;;;;6.68;3.10;;;;;;;-139.84;100.00;61778.28;4987763;28;20040;-73
2023/04/03 03:49:48;;;;;;;6.18;2.70;;;;;;;-139.84;100.00;61778.28;4990168;28;20121;-73
2023/04/03 03:52:14;;;;;;;6.38;2.90;;;;;;;-139.84;100.00;61778.28;5003073;28;20481;-73
2023/04/03 03:54:39;;;;;;;5.50;2.85;;;;;;;-139.84;100.00;61778.28;4989833;28;20164;-73
2023/04/03 03:57:05;;;;;;;7.83;3.20;;;;;;;-139.84;100.00;61778.28;4989160;28;20442;-73
2023/04/03 03:59:31;;;;;;;5.75;3.67;;;;;;;-139.84;100.00;61778.28;4988115;28;20100;-74
2023/04/03 04:01:57;;;;;;;7.35;3.40;;;;;;;-139.84;100.00;61778.28;4988702;28;20081;-74
2023/04/03 04:04:22;;;;;;;5.88;3.05;;;;;;;-139.84;100.00;61778.28;4988413;28;20454;-73
2023/04/03 04:06:47;;;;;;;5.78;2.90;;;;;;;-139.84;100.00;61778.28;4999647;28;20025;-73
2023/04/03 04:09:13;;;;;;;9.90;3.25;;;;;;;-139.84;100.00;61778.28;4986500;28;20041;-74
2023/04/03 04:11:40;;;;;;;10.45;3.10;;;;;;;-139.84;100.00;61778.28;4987475;28;20097;-73
2023/04/03 04:14:06;;;;;;;6.10;3.55;;;;;;;-139.84;100.00;61778.28;4988572;28;20502;-74
2023/04/03 04:16:31;;;;;;;5.63;3.17;;;;;;;-139.84;100.00;61778.28;4999640;28;20038;-74
2023/04/03 04:18:57;;;;;;;3.20;2.75;;;;;;;-139.84;100.00;61778.28;4987377;28;20121;-73
2023/04/03 04:21:22;;;;;;;5.15;3.17;;;;;;;-139.84;100.00;61778.28;4987443;28;20093;-75
2023/04/03 04:23:48;;;;;;;7.77;3.07;;;;;;;-139.84;100.00;61778.28;4988122;28;20040;-73
2023/04/03 04:26:13;;;;;;;11.95;3.10;;;;;;;-139.84;100.00;61778.28;4990679;28;20034;-74
2023/04/03 04:28:39;;;;;;;8.55;3.75;;;;;;;-139.84;100.00;61778.28;4988295;28;20037;-73
2023/04/03 04:31:04;;;;;;;8.23;3.95;;;;;;;-139.84;100.00;61778.28;4987140;28;20057;-73
2023/04/03 04:33:30;;;;;;;7.90;3.65;;;;;;;-139.84;100.00;61778.28;4987231;28;20025;-73
2023/04/03 04:35:55;;;;;;;6.72;3.00;;;;;;;-139.84;100.00;61778.28;4979752;28;20562;-73
2023/04/03 04:38:21;;;;;;;8.15;2.90;;;;;;;-139.84;100.00;61778.28;4986049;28;20060;-74
2023/04/03 04:40:48;;;;;;;9.27;3.65;;;;;;;-139.84;100.00;61778.28;4999001;28;20445;-73
2023/04/03 04:43:14;;;;;;;5.88;2.83;;;;;;;-139.84;100.00;61778.28;4987143;28;20022;-73
2023/04/03 04:45:40;;;;;;;8.20;3.30;;;;;;;-139.84;100.00;61778.28;4987569;28;20120;-73
2023/04/03 04:48:06;;;;;;;5.63;3.00;;;;;;;-139.84;100.00;61778.28;4986113;28;20033;-74
2023/04/03 04:50:31;;;;;;;5.68;3.60;;;;;;;-139.84;100.00;61778.28;5005578;28;20794;-75
2023/04/03 04:52:56;;;;;;;7.22;4.00;;;;;;;-139.84;100.00;61778.28;4984373;28;20061;-75
2023/04/03 04:55:22;;;;;;;8.02;3.55;;;;;;;-139.84;100.00;61778.28;4984989;28;20505;-74
2023/04/03 04:57:47;;;;;;;8.85;3.28;;;;;;;-139.84;100.00;61778.28;4982437;28;20026;-74
2023/04/03 05:00:14;;;;;;;5.03;3.35;;;;;;;-139.84;100.00;61778.28;4985311;28;20065;-75
2023/04/03 05:02:39;;;;;;;10.02;4.13;;;;;;;-139.84;100.00;61778.28;4985907;28;20494;-74
2023/04/03 05:05:05;;;;;;;4.55;3.30;;;;;;;-139.84;100.00;61778.28;4980876;28;20117;-75
2023/04/03 05:07:31;;;;;;;11.05;3.30;;;;;;;-139.84;100.00;61778.28;4987725;28;20053;-75
2023/04/03 05:09:56;;;;;;;11.32;3.90;;;;;;;-139.84;100.00;61778.28;4983043;28;20085;-74
2023/04/03 05:12:23;;;;;;;8.68;3.50;;;;;;;-139.84;100.00;61778.28;4981760;28;20034;-72
2023/04/03 05:14:50;;;;;;;12.90;3.95;;;;;;;-139.84;100.00;61778.28;4980816;28;20058;-72
2023/04/03 05:17:15;;;;;;;10.77;3.50;;;;;;;-139.84;100.00;61778.28;4986795;28;20035;-73
2023/04/03 05:19:42;;;;;;;7.13;3.35;;;;;;;-139.84;100.00;61778.28;4985510;28;20093;-72
2023/04/03 05:22:07;;;;;;;11.65;3.72;;;;;;;-139.84;100.00;61778.28;4987213;28;20034;-73
2023/04/03 05:24:33;;;;;;;4.18;3.10;;;;;;;-139.84;100.00;61778.28;4988673;28;20038;-75
2023/04/03 05:26:59;;;;;;;10.57;3.88;;;;;;;-139.84;100.00;61778.28;4985288;28;20046;-72
2023/04/03 05:29:26;;;;;;;8.98;3.60;;;;;;;-139.84;100.00;61778.28;4987973;28;20049;-72
2023/04/03 05:31:51;;;;;;;9.27;4.60;;;;;;;-139.84;100.00;61778.28;4985943;28;20426;-72
2023/04/03 05:34:16;;;;;;;12.05;4.38;;;;;;;-139.84;100.00;61778.28;4989162;28;20030;-75
2023/04/03 05:36:42;;;;;;;10.15;4.22;;;;;;;-139.84;100.00;61778.28;4998324;28;20394;-74
2023/04/03 05:39:08;;;;;;;8.35;4.20;;;;;;;-139.84;100.00;61778.28;4987035;28;20394;-74
2023/04/03 05:41:33;;;;;;;7.68;3.63;;;;;;;-139.84;100.00;61778.28;4985898;28;20470;-74
2023/04/03 05:43:59;;;;;;;9.63;3.85;;;;;;;-139.84;100.00;61778.28;4985732;28;20530;-74
2023/04/03 05:46:24;;;;;;;8.55;4.10;;;;;;;-139.84;100.00;61778.28;4986186;28;20381;-74
2023/04/03 05:48:50;;;;;;;8.40;4.30;;;;;;;-139.84;100.00;61778.28;4988287;28;20038;-73
2023/04/03 05:51:18;;;;;;;6.38;4.00;;;;;;;-139.84;100.00;61778.28;4988403;28;20098;-74
2023/04/03 05:53:45;;;;;;;10.70;4.03;;;;;;;-139.84;100.00;61778.28;4985292;28;20036;-74
2023/04/03 05:56:10;;;;;;;11.90;4.20;;;;;;;-139.84;100.00;61778.28;4986541;28;20064;-74
2023/04/03 05:58:36;;;;;;;6.53;3.40;;;;;;;-139.84;100.00;61778.28;4985015;28;20046;-74
2023/04/03 06:01:01;;;;;;;11.13;3.83;;;;;;;-139.84;100.00;61778.28;4988105;28;20080;-74
2023/04/03 06:03:27;;;;;;;10.88;3.85;;;;;;;-139.84;100.00;61778.28;4986730;28;20052;-74
2023/04/03 06:05:52;;;;;;;8.05;3.85;;;;;;;-139.84;100.00;61778.28;4986108;28;20026;-74
2023/04/03 06:08:18;;;;;;;5.03;3.55;;;;;;;-139.84;100.00;61778.28;4986284;28;20034;-73
2023/04/03 06:10:44;;;;;;;7.70;3.60;;;;;;;-139.84;100.00;61778.28;4982790;28;20478;-74
2023/04/03 06:13:10;;;;;;;14.35;4.55;;;;;;;-139.84;100.00;61778.28;4987699;28;20030;-75
2023/04/03 06:15:36;;;;;;;5.18;3.40;;;;;;;-139.84;100.00;61778.28;4987995;28;20528;-74
2023/04/03 06:18:02;;;;;;;8.15;3.30;;;;;;;-139.84;100.00;61778.28;4987200;28;20508;-74
2023/04/03 06:20:27;;;;;;;6.15;3.45;;;;;;;-139.84;100.00;61778.28;4986838;28;20026;-75
2023/04/03 06:22:53;;;;;;;6.88;3.28;;;;;;;-139.84;100.00;61778.28;4983448;28;20045;-74
2023/04/03 06:25:18;;;;;;;5.55;3.05;;;;;;;-139.84;100.00;61778.28;4984422;28;20037;-74
2023/04/03 06:27:45;;;;;;;9.70;3.35;;;;;;;-139.84;100.00;61778.28;4986859;28;20484;-74
2023/04/03 06:30:11;;;;;;;13.15;3.78;;;;;;;-139.84;100.00;61778.28;4985313;28;20034;-74
2023/04/03 06:32:37;;;;;;;8.68;3.60;;;;;;;-139.84;100.00;61778.28;4989485;28;20397;-73
2023/04/03 06:35:03;;;;;;;7.85;3.40;;;;;;;-139.84;100.00;61778.28;4991723;28;20030;-74
2023/04/03 06:37:30;;;;;;;6.18;4.28;;;;;;;-139.84;100.00;61778.28;4990647;28;20053;-74
2023/04/03 06:39:55;;;;;;;8.80;3.35;;;;;;;-139.84;100.00;61778.28;4991461;28;20462;-76
2023/04/03 06:42:21;;;;;;;12.48;3.97;;;;;;;-139.84;100.00;61778.28;4990735;28;20027;-74
2023/04/03 06:44:47;;;;;;;7.18;3.25;;;;;;;-139.84;100.00;61778.28;4985544;28;20117;-73
2023/04/03 06:47:16;;;;;;;10.68;3.90;;;;;;;-139.84;100.00;61778.28;4986798;28;20478;-74
2023/04/03 06:49:42;;;;;;;11.82;3.60;;;;;;;-139.84;100.00;61778.28;4990231;28;20042;-74
2023/04/03 06:52:09;;;;;;;4.57;3.53;;;;;;;-139.84;100.00;61778.28;4990582;28;20055;-74
2023/04/03 06:54:35;;;;;;;8.05;3.17;;;;;;;-139.84;100.00;61778.28;4985545;28;20042;-74
2023/04/03 06:57:01;;;;;;;6.53;3.40;;;;;;;-139.84;100.00;61778.28;4987029;28;20061;-74
2023/04/03 06:59:27;;;;;;;13.57;3.03;;;;;;;-139.84;100.00;61778.28;4984231;28;20026;-74
2023/04/03 07:01:52;;;;;;;4.80;2.70;;;;;;;-139.84;100.00;61778.28;4987696;28;20026;-74
2023/04/03 07:04:20;;;;;;;6.15;2.88;;;;;;;-139.84;100.00;61778.28;5006840;28;20512;-74
2023/04/03 07:06:46;;;;;;;7.22;2.78;;;;;;;-139.84;100.00;61778.28;5000991;28;20465;-74
2023/04/03 07:09:12;;;;;;;7.88;2.70;;;;;;;-139.84;100.00;61778.28;4988658;28;20482;-74
2023/04/03 07:11:37;;;;;;;9.50;2.75;;;;;;;-139.84;100.00;61778.28;4985545;28;20045;-75
2023/04/03 07:14:03;;;;;;;6.40;3.30;;;;;;;-139.84;100.00;61778.28;5002451;28;20100;-74
2023/04/03 07:16:30;;;;;;;5.88;2.55;;;;;;;-139.84;100.00;61778.28;5005090;28;20030;-74
2023/04/03 07:18:56;;;;;;;6.53;2.40;;;;;;;-139.84;100.00;61778.28;4989124;28;20037;-75
2023/04/03 07:21:21;;;;;;;9.07;2.70;;;;;;;-139.84;100.00;61778.28;4989561;28;20396;-74
2023/04/03 07:23:47;;;;;;;3.80;2.53;;;;;;;-139.84;100.00;61778.28;4988080;28;20104;-75
2023/04/03 07:26:12;;;;;;;8.02;2.58;;;;;;;-139.84;100.00;61778.28;4985461;28;20048;-75
2023/04/03 07:28:39;;;;;;;9.93;2.60;;;;;;;-139.84;100.00;61778.28;4988082;28;20524;-75
2023/04/03 07:31:08;;;;;;;8.05;3.00;;;;;;;-139.84;100.00;61778.28;4988844;28;20794;-75
2023/04/03 07:33:35;;;;;;;9.82;2.42;;;;;;;-139.84;100.00;61778.28;4989504;28;20073;-74
2023/04/03 07:36:01;;;;;;;7.85;2.85;;;;;;;-139.84;100.00;61778.28;4989570;28;20026;-75
2023/04/03 07:38:27;;;;;;;4.68;2.40;;;;;;;-139.84;100.00;61778.28;4989126;28;20041;-74
2023/04/03 07:40:53;;;;;;;9.18;2.70;;;;;;;-139.84;100.00;61778.28;4988799;28;20113;-75
2023/04/03 07:43:20;;;;;;;6.03;2.35;;;;;;;-139.84;100.00;61778.28;4988672;28;20034;-75
2023/04/03 07:45:47;;;;;;;5.57;2.58;;;;;;;-139.84;100.00;61778.28;4984795;28;20494;-74
2023/04/03 07:48:13;;;;;;;6.07;2.60;;;;;;;-139.84;100.00;61778.28;4993583;28;20116;-75
2023/04/03 07:50:42;;;;;;;6.55;2.33;;;;;;;-139.84;100.00;61778.28;4986173;28;20073;-75
2023/04/03 07:53:08;;;;;;;7.85;2.95;;;;;;;-139.84;100.00;61778.28;4985566;28;20058;-75
2023/04/03 07:55:34;;;;;;;16.10;3.15;;;;;;;-139.84;100.00;61778.28;4988572;28;20456;-75
2023/04/03 07:57:59;;;;;;;10.85;2.72;;;;;;;-139.84;100.00;61778.28;4985588;28;20545;-75
2023/04/03 08:00:25;;;;;;;7.93;2.55;;;;;;;-139.84;100.00;61778.28;4992439;28;20076;-75
2023/04/03 08:02:51;;;;;;;7.53;2.40;;;;;;;-139.84;100.00;61778.28;4986989;28;20026;-75
2023/04/03 08:05:20;;;;;;;9.15;2.35;;;;;;;-139.84;100.00;61778.28;4985475;28;20033;-75
2023/04/03 08:07:46;;;;;;;5.60;2.40;;;;;;;-139.84;100.00;61778.28;4985408;28;20097;-75
2023/04/03 08:10:11;;;;;;;4.83;2.60;;;;;;;-139.84;100.00;61778.28;4987571;28;20061;-75
2023/04/03 08:12:37;;;;;;;12.80;2.95;;;;;;;-139.84;100.00;61778.28;4988155;28;20026;-75
2023/04/03 08:15:03;;;;;;;10.40;2.75;;;;;;;-139.84;100.00;61778.28;4986775;28;20050;-75
2023/04/03 08:17:29;;;;;;;8.80;2.50;;;;;;;-139.84;100.00;61778.28;4988710;28;20114;-74
2023/04/03 08:19:55;;;;;;;7.63;2.47;;;;;;;-139.84;100.00;61778.28;4989427;28;20076;-74
2023/04/03 08:22:20;;;;;;;16.83;2.92;;;;;;;-139.84;100.00;61778.28;4983516;28;20693;-74
2023/04/03 08:24:46;;;;;;;6.28;2.85;;;;;;;-139.84;100.00;61778.28;4986721;28;20034;-74
2023/04/03 08:27:11;;;;;;;8.50;3.45;;;;;;;-139.84;100.00;61778.28;4983863;28;20497;-75
2023/04/03 08:29:37;;;;;;;5.70;2.10;;;;;;;-139.84;100.00;61778.28;4986243;28;20041;-74
2023/04/03 08:32:04;;;;;;;7.22;2.40;;;;;;;-139.84;100.00;61778.28;4998899;28;20034;-75
2023/04/03 08:34:29;;;;;;;5.03;2.63;;;;;;;-139.84;100.00;61778.28;4982230;28;20493;-75
2023/04/03 08:36:55;;;;;;;5.18;2.42;;;;;;;-139.84;100.00;61778.28;4996496;28;20041;-74
2023/04/03 08:39:20;;;;;;;10.95;2.50;;;;;;;-139.84;100.00;61778.28;4988716;28;20085;-75
2023/04/03 08:41:47;;;;;;;4.97;1.88;;;;;;;-139.84;100.00;61778.28;4986413;28;20072;-75
2023/04/03 08:44:25;;;;;;;7.28;2.22;;;;;;;-139.84;100.00;61778.28;4997274;28;20117;-75
2023/04/03 08:47:06;;;;;;;5.90;2.83;;;;;;;-139.84;100.00;61778.28;4983882;28;20037;-74
2023/04/03 08:49:50;;;;;;;6.03;2.08;;;;;;;-139.84;100.00;61778.28;4984145;28;20509;-74
2023/04/03 08:52:27;;;;;;;5.80;1.92;;;;;;;-139.84;100.00;61778.28;4984415;28;21626;-73
2023/04/03 08:55:01;;;;;;;7.63;2.50;;;;;;;-139.84;100.00;61778.28;4987820;28;20108;-75
2023/04/03 08:57:39;;;;;;;8.93;2.50;;;;;;;-139.84;100.00;61778.28;4984456;28;20382;-76
2023/04/03 09:00:14;;;;;;;3.42;2.15;;;;;;;-139.84;100.00;61778.28;4986348;28;20540;-75
2023/04/03 09:02:59;;;;;;;6.55;2.03;;;;;;;-139.84;100.00;61778.28;4982302;28;20022;-76
2023/04/03 09:05:35;;;;;;;5.95;2.00;;;;;;;-139.84;100.00;61778.28;5002074;28;20042;-75
2023/04/03 09:08:12;;;;;;;4.95;2.08;;;;;;;-139.84;100.00;61778.28;4983810;28;20345;-75
2023/04/03 09:10:40;;;;;;;15.47;2.33;;;;;;;-139.84;100.00;61778.28;5000653;28;20026;-74
2023/04/03 09:13:47;;;;;;;4.43;2.08;;;;;;;-139.84;100.00;61778.28;5001090;28;20351;-74
2023/04/03 09:16:50;;;;;;;7.00;2.00;;;;;;;-139.84;100.00;61778.28;4980052;28;20408;-74
2023/04/03 09:19:38;;;;;;;4.60;2.38;;;;;;;-139.84;100.00;61778.28;4984852;28;20037;-75
2023/04/03 09:22:14;;;;;;;6.40;2.13;;;;;;;-139.84;100.00;61778.28;5001172;28;20026;-74
2023/04/03 09:24:41;;;;;;;6.38;1.73;;;;;;;-139.84;100.00;61778.28;4989333;28;20050;-74
2023/04/03 09:27:10;;;;;;;4.03;1.95;;;;;;;-139.84;100.00;61778.28;4984696;28;20505;-75
2023/04/03 09:29:40;;;;;;;5.45;1.45;;;;;;;-139.84;100.00;61778.28;4989114;28;20042;-74
2023/04/03 09:32:27;;;;;;;4.00;2.17;;;;;;;-139.84;100.00;61778.28;4988627;28;20032;-74
2023/04/03 09:34:56;;;;;;;10.45;1.80;;;;;;;-139.84;100.00;61778.28;4982248;28;20038;-75
2023/04/03 09:37:40;;;;;;;6.43;1.38;;;;;;;-139.84;100.00;61778.28;4990208;28;20038;-74
2023/04/03 09:40:26;;;;;;;3.30;1.60;;;;;;;-139.84;100.00;61778.28;4981988;28;20143;-74
2023/04/03 09:43:01;;;;;;;2.90;1.23;;;;;;;-139.84;100.00;61778.28;4999671;28;20394;-74
2023/04/03 09:45:32;;;;;;;3.55;1.52;;;;;;;-139.84;100.00;61778.28;4987191;28;20026;-74
2023/04/03 09:48:08;;;;;;;4.70;1.20;;;;;;;-139.84;100.00;61778.28;4985614;28;20054;-74
2023/04/03 09:50:35;;;;;;;2.85;1.52;;;;;;;-139.84;100.00;61778.28;4987466;28;20030;-75
2023/04/03 09:53:07;;;;;;;2.42;1.30;;;;;;;-139.84;100.00;61778.28;4986693;28;20066;-75
2023/04/03 09:55:32;;;;;;;3.33;1.70;;;;;;;-139.84;100.00;61778.28;4985653;28;20046;-75
2023/04/03 09:58:01;;;;;;;2.83;1.27;;;;;;;-139.84;100.00;61778.28;4985154;28;20409;-74
2023/04/03 10:00:39;;;;;;;3.85;1.60;;;;;;;-139.84;100.00;61778.28;4990247;28;20867;-75
2023/04/03 10:03:23;;;;;;;2.72;1.13;;;;;;;-139.84;100.00;61778.28;4990185;28;20520;-74
2023/04/03 10:05:50;;;;;;;3.72;1.35;;;;;;;-139.84;100.00;61778.28;4987396;28;20062;-74
2023/04/03 10:08:16;;;;;;;1.52;1.02;;;;;;;-139.84;100.00;61778.28;4991053;28;20034;-74
2023/04/03 10:10:44;;;;;;;1.75;0.77;;;;;;;-139.84;100.00;61778.28;4992370;28;20038;-74
2023/04/03 10:13:16;;;;;;;2.20;1.20;;;;;;;-139.84;100.00;61778.28;4989836;28;20107;-75
2023/04/03 10:15:59;;;;;;;2.70;1.20;;;;;;;-139.84;100.00;61778.28;4982513;28;20481;-75
2023/04/03 10:18:46;;;;;;;1.88;1.25;;;;;;;-139.84;100.00;61778.28;4988749;28;20125;-74
2023/04/03 10:21:30;;;;;;;1.40;0.90;;;;;;;-139.84;100.00;61778.28;4989167;28;20117;-74
2023/04/03 10:24:08;;;;;;;3.63;1.15;;;;;;;-139.84;100.00;61778.28;4982326;28;20073;-75
2023/04/03 10:26:57;;;;;;;3.28;0.85;;;;;;;-139.84;100.00;61778.28;4983195;28;20046;-74
2023/04/03 10:29:41;;;;;;;1.42;1.08;;;;;;;-139.84;100.00;61778.28;4991722;28;20026;-75
2023/04/03 10:32:31;;;;;;;1.50;0.95;;;;;;;-139.84;100.00;61778.28;4989928;28;20030;-74
2023/04/03 10:35:09;;;;;;;2.30;1.10;;;;;;;-139.84;100.00;61778.28;4989814;28;20039;-74
2023/04/03 10:37:46;;;;;;;4.82;1.00;;;;;;;-139.84;100.00;61778.28;4989701;28;20159;-74
2023/04/03 10:40:33;;;;;;;2.67;1.55;;;;;;;-139.84;100.00;61778.28;4984161;28;20026;-74
2023/04/03 10:43:09;;;;;;;1.63;0.98;;;;;;;-139.84;100.00;61778.28;4986687;28;20070;-74
2023/04/03 10:46:16;;;;;;;5.47;1.30;;;;;;;-139.84;100.00;61778.28;4982149;28;20022;-74
2023/04/03 10:48:50;;;;;;;2.67;1.02;;;;;;;-139.84;100.00;61778.28;4989041;28;20302;-74
2023/04/03 10:51:26;;;;;;;5.50;1.50;;;;;;;-139.84;100.00;61778.28;4987855;28;20054;-75
2023/04/03 10:54:05;;;;;;;2.40;1.20;;;;;;;-139.84;100.00;61778.28;4985418;28;20081;-75
2023/04/03 10:56:40;;;;;;;1.60;1.00;;;;;;;-139.84;100.00;61778.28;4984250;28;20105;-74
2023/04/03 10:59:30;;;;;;;2.63;1.00;;;;;;;-139.84;100.00;61778.28;4987576;28;20144;-74
2023/04/03 11:01:59;;;;;;;4.90;1.08;;;;;;;-139.84;100.00;61778.28;4984479;28;20046;-74
2023/04/03 11:04:29;;;;;;;1.90;1.10;;;;;;;-139.84;100.00;61778.28;4989102;28;20038;-75
2023/04/03 11:07:31;;;;;;;2.65;1.27;;;;;;;-139.84;100.00;61778.28;4984507;28;20084;-75
2023/04/03 11:10:33;;;;;;;1.58;1.30;;;;;;;-139.84;100.00;61778.28;4977896;28;20042;-75
2023/04/03 11:13:06;;;;;;;3.83;1.10;;;;;;;-139.84;100.00;61778.28;4983848;28;20111;-74
2023/04/03 11:15:33;;;;;;;1.20;0.90;;;;;;;-139.84;100.00;61778.28;5004577;28;20505;-74
2023/04/03 11:18:06;;;;;;;3.83;1.10;;;;;;;-139.84;100.00;61778.28;4992102;28;20235;-74